Time;durP1;ratioP1;P1;durP2;ratioP2;P2;SDS_P1;SDS_P2;PMS_P1;PMS_P2;Temp;Humidity;BMP_temperature;BMP_pressure;BME280_temperature;BME280_humidity;BME280_pressure;Samples;Min_cycle;Max_cycle;Signal;HPM_P1;HPM_P2
2021/10/02 00:02:11;;;;;;;;;;;;;;;9.35;100.00;100945.97;6274215;28;20554;-76
2021/10/02 00:35:15;;;;;;;;;;;;;;;9.16;100.00;100932.84;6272169;28;19927;-76
2021/10/02 00:44:54;;;;;;;;;;;;;;;9.05;100.00;100925.50;6275489;28;19974;-73
2021/10/02 00:47:57;;;;;;;;;;;;;;;9.14;100.00;100921.66;6297981;28;20012;-73
2021/10/02 00:51:00;;;;;;;;;;;;;;;9.20;100.00;100919.63;6297725;28;19924;-73
2021/10/02 00:54:00;;;;;;;;;;;;;;;9.20;100.00;100914.44;6297682;28;19920;-73
2021/10/02 00:57:01;;;;;;;;;;;;;;;9.14;100.00;100912.13;6297580;28;19920;-73
2021/10/02 01:00:03;;;;;;;;;;;;;;;9.09;100.00;100916.66;6297408;28;20111;-76
2021/10/02 01:03:09;;;;;;;;;;;;;;;9.05;100.00;100908.09;6296382;28;20336;-74
2021/10/02 01:06:16;;;;;;;;;;;;;;;9.00;100.00;100906.63;6297507;28;19920;-76
2021/10/02 01:09:29;;;;;;;;;;;;;;;9.01;100.00;100909.16;6297426;28;20011;-76
2021/10/02 01:12:45;;;;;;;;;;;;;;;9.02;100.00;100907.41;6279913;28;19962;-76
2021/10/02 01:16:04;;;;;;;;;;;;;;;9.07;100.00;100902.84;6295953;28;20371;-76
2021/10/02 01:19:05;;;;;;;;;;;;;;;9.10;100.00;100904.47;6297268;28;19920;-76
2021/10/02 01:22:09;;;;;;;;;;;;;;;9.16;100.00;100901.63;6297468;28;20472;-76
2021/10/02 01:25:23;;;;;;;;;;;;;;;9.24;100.00;100900.38;6297382;28;19927;-73
2021/10/02 01:28:25;;;;;;;;;;;;;;;9.26;100.00;100892.50;6297292;28;20038;-76
2021/10/02 01:31:34;;;;;;;;;;;;;;;9.29;100.00;100897.59;6296965;28;19931;-73
2021/10/02 01:47:53;;;;;;;;;;;;;;;9.19;100.00;100896.28;6296509;28;19928;-74
2021/10/02 01:50:55;;;;;;;;;;;;;;;9.13;100.00;100899.16;6295011;28;19946;-76
2021/10/02 01:53:57;;;;;;;;;;;;;;;9.12;100.00;100895.72;6296194;28;19928;-74
2021/10/02 01:56:57;;;;;;;;;;;;;;;9.12;100.00;100898.31;6296316;28;20294;-74
2021/10/02 02:00:01;;;;;;;;;;;;;;;9.13;100.00;100905.19;6296096;28;19920;-74
2021/10/02 02:03:03;;;;;;;;;;;;;;;9.16;100.00;100904.22;6296312;28;19920;-76
2021/10/02 02:06:05;;;;;;;;;;;;;;;9.18;100.00;100902.41;6296046;28;19924;-76
2021/10/02 02:09:07;;;;;;;;;;;;;;;9.20;100.00;100898.81;6294609;28;20333;-76
2021/10/02 02:12:13;;;;;;;;;;;;;;;9.21;100.00;100897.06;6296112;28;20356;-76
2021/10/02 02:15:14;;;;;;;;;;;;;;;9.21;100.00;100890.09;6295951;28;19970;-74
2021/10/02 02:18:16;;;;;;;;;;;;;;;9.21;100.00;100884.91;6294707;28;19927;-73
2021/10/02 02:21:19;;;;;;;;;;;;;;;9.24;100.00;100887.34;6295963;28;19920;-73
2021/10/02 02:24:20;;;;;;;;;;;;;;;9.25;100.00;100891.66;6294760;28;19927;-76
2021/10/02 02:27:21;;;;;;;;;;;;;;;9.29;100.00;100895.00;6294462;28;19932;-73
2021/10/02 02:30:22;;;;;;;;;;;;;;;9.28;100.00;100881.09;6296158;28;19935;-76
2021/10/02 02:33:22;;;;;;;;;;;;;;;9.30;100.00;100893.22;6295817;28;19920;-73
2021/10/02 02:36:24;;;;;;;;;;;;;;;9.34;100.00;100884.38;6295681;28;19931;-74
2021/10/02 02:39:26;;;;;;;;;;;;;;;9.43;100.00;100897.00;6295711;28;20322;-76
2021/10/02 02:42:27;;;;;;;;;;;;;;;9.38;100.00;100889.38;6294552;28;19973;-76
2021/10/02 02:45:28;;;;;;;;;;;;;;;9.37;100.00;100887.69;6295770;28;20325;-76
2021/10/02 02:48:31;;;;;;;;;;;;;;;9.35;100.00;100884.31;6295917;28;19924;-76
2021/10/02 02:51:39;;;;;;;;;;;;;;;9.42;100.00;100888.34;6294545;28;19921;-76
2021/10/02 02:55:03;;;;;;;;;;;;;;;9.53;100.00;100893.06;6295499;28;19927;-73
2021/10/02 02:58:05;;;;;;;;;;;;;;;9.62;100.00;100891.84;6295226;28;19924;-74
2021/10/02 03:01:06;;;;;;;;;;;;;;;9.67;100.00;100895.94;6294778;28;20326;-73
2021/10/02 03:04:13;;;;;;;;;;;;;;;9.66;100.00;100888.19;6299098;28;19927;-74
2021/10/02 03:07:16;;;;;;;;;;;;;;;9.69;100.00;100895.88;6300264;28;19920;-74
2021/10/02 03:10:17;;;;;;;;;;;;;;;9.69;100.00;100894.09;6300277;28;19920;-74
2021/10/02 03:13:22;;;;;;;;;;;;;;;9.69;100.00;100888.06;6300090;28;19928;-73
2021/10/02 03:16:24;;;;;;;;;;;;;;;9.72;100.00;100882.72;6300026;28;19920;-73
2021/10/02 03:19:25;;;;;;;;;;;;;;;9.70;100.00;100894.97;6298907;28;19927;-74
2021/10/02 03:22:27;;;;;;;;;;;;;;;9.74;100.00;100885.25;6299910;28;20287;-76
2021/10/02 03:25:29;;;;;;;;;;;;;;;9.76;100.00;100888.63;6298672;28;19920;-76
2021/10/02 03:28:30;;;;;;;;;;;;;;;9.75;100.00;100889.56;6298563;28;19920;-76
2021/10/02 03:31:32;;;;;;;;;;;;;;;9.72;100.00;100879.25;6299860;28;19920;-76
2021/10/02 03:34:33;;;;;;;;;;;;;;;9.72;100.00;100882.72;6298544;28;19924;-76
2021/10/02 03:37:34;;;;;;;;;;;;;;;9.69;100.00;100878.47;6299588;28;19969;-76
2021/10/02 03:40:35;;;;;;;;;;;;;;;9.73;100.00;100873.97;6298351;28;19920;-74
2021/10/02 03:43:36;;;;;;;;;;;;;;;9.69;100.00;100872.41;6299552;28;19920;-73
2021/10/02 03:46:37;;;;;;;;;;;;;;;9.64;100.00;100861.38;6298030;28;20416;-74
2021/10/02 03:49:37;;;;;;;;;;;;;;;9.64;100.00;100864.81;6299400;28;19920;-74
2021/10/02 03:52:38;;;;;;;;;;;;;;;9.59;100.00;100861.53;6299842;28;19920;-73
2021/10/02 03:55:39;;;;;;;;;;;;;;;9.53;100.00;100860.97;6299201;28;19967;-74
2021/10/02 03:58:40;;;;;;;;;;;;;;;9.46;100.00;100860.41;6298720;28;19920;-75
2021/10/02 04:01:41;;;;;;;;;;;;;;;9.50;100.00;100853.31;6299047;28;19962;-73
2021/10/02 04:04:41;;;;;;;;;;;;;;;9.55;100.00;100857.38;6298859;28;19920;-74
2021/10/02 04:07:42;;;;;;;;;;;;;;;9.71;100.00;100859.34;6297667;28;20015;-76
2021/10/02 04:10:43;;;;;;;;;;;;;;;9.85;100.00;100862.16;6297672;28;20394;-73
2021/10/02 04:13:43;;;;;;;;;;;;;;;9.79;100.00;100863.28;6298989;28;19943;-74
2021/10/02 04:16:44;;;;;;;;;;;;;;;9.72;100.00;100877.50;6297491;28;20053;-73
2021/10/02 04:19:45;;;;;;;;;;;;;;;9.74;100.00;100864.38;6297505;28;19920;-74
2021/10/02 04:22:45;;;;;;;;;;;;;;;9.71;100.00;100873.19;6297388;28;20354;-75
2021/10/02 04:25:46;;;;;;;;;;;;;;;9.72;100.00;100877.50;6298457;28;20722;-73
2021/10/02 04:28:47;;;;;;;;;;;;;;;9.76;100.00;100883.41;6298537;28;19961;-76
2021/10/02 04:31:47;;;;;;;;;;;;;;;9.76;100.00;100880.81;6298340;28;19920;-73
2021/10/02 04:34:48;;;;;;;;;;;;;;;9.71;100.00;100882.78;6298544;28;19925;-76
2021/10/02 04:37:49;;;;;;;;;;;;;;;9.71;100.00;100877.56;6298369;28;19973;-73
2021/10/02 04:40:49;;;;;;;;;;;;;;;9.69;100.00;100878.47;6298056;28;20394;-76
2021/10/02 04:43:50;;;;;;;;;;;;;;;9.71;100.00;100888.00;6296889;28;20432;-73
2021/10/02 04:46:50;;;;;;;;;;;;;;;9.76;100.00;100883.41;6280032;28;19966;-74
2021/10/02 04:49:53;;;;;;;;;;;;;;;9.80;100.00;100887.56;6298130;28;19920;-76
2021/10/02 04:52:55;;;;;;;;;;;;;;;9.82;100.00;100884.00;6297929;28;19921;-76
2021/10/02 04:55:59;;;;;;;;;;;;;;;9.95;100.00;100886.06;6296552;28;20375;-76
2021/10/02 04:58:59;;;;;;;;;;;;;;;10.05;100.00;100882.97;6296290;28;19926;-74
2021/10/02 05:02:00;;;;;;;;;;;;;;;10.15;100.00;100887.75;6296474;28;20287;-74
2021/10/02 05:05:00;;;;;;;;;;;;;;;10.08;100.00;100876.75;6297485;28;19920;-74
2021/10/02 05:08:01;;;;;;;;;;;;;;;9.92;100.00;100884.41;6297311;28;20321;-76
2021/10/02 05:11:02;;;;;;;;;;;;;;;9.85;100.00;100883.84;6296187;28;19947;-76
2021/10/02 05:14:03;;;;;;;;;;;;;;;10.00;100.00;100890.13;6297365;28;19963;-74
2021/10/02 05:17:10;;;;;;;;;;;;;;;9.93;100.00;100882.69;6297197;28;19924;-73
2021/10/02 05:20:11;;;;;;;;;;;;;;;9.93;100.00;100883.53;6282501;28;19925;-76
2021/10/02 05:23:12;;;;;;;;;;;;;;;9.90;100.00;100875.81;6267584;28;19927;-76
2021/10/02 05:26:13;;;;;;;;;;;;;;;9.89;100.00;100877.59;6263453;28;19929;-76
2021/10/02 05:29:13;;;;;;;;;;;;;;;10.01;100.00;100888.41;6267798;28;19921;-73
2021/10/02 05:32:15;;;;;;;;;;;;;;;10.11;100.00;100902.72;6248493;28;20335;-74
2021/10/02 05:35:16;;;;;;;;;;;;;;;10.13;100.00;100892.19;6250997;28;19927;-74
2021/10/02 05:38:20;;;;;;;;;;;;;;;10.18;100.00;100898.88;6247205;28;19921;-74
2021/10/02 05:41:21;;;;;;;;;;;;;;;10.35;100.00;100899.91;6279002;28;20324;-74
2021/10/02 05:44:21;;;;;;;;;;;;;;;10.36;100.00;100901.63;6245971;28;19944;-75
2021/10/02 05:47:22;;;;;;;;;;;;;;;10.54;100.00;100903.31;6262381;28;20390;-76
2021/10/02 05:50:23;;;;;;;;;;;;;;;10.59;100.00;100901.38;6279659;28;20386;-76
2021/10/02 05:53:24;;;;;;;;;;;;;;;10.62;100.00;100903.81;6246912;28;19925;-76
2021/10/02 05:56:25;;;;;;;;;;;;;;;10.83;100.00;100904.56;6278761;28;19932;-74
2021/10/02 05:59:25;;;;;;;;;;;;;;;11.00;100.00;100908.97;6246209;28;19921;-76
2021/10/02 06:02:26;;;;;;;;;;;;;;;11.07;100.00;100912.09;6245793;28;19921;-75
2021/10/02 06:05:27;;;;;;;;;;;;;;;11.07;100.00;100909.50;6244477;28;20379;-74
2021/10/02 06:08:27;;;;;;;;;;;;;;;11.03;100.00;100919.25;6261036;28;19921;-73
2021/10/02 06:11:28;;;;;;;;;;;;;;;11.23;100.00;100925.25;6245795;28;19921;-74
2021/10/02 06:14:29;;;;;;;;;;;;;;;11.00;100.00;100923.78;6245613;28;19921;-76
2021/10/02 06:17:30;;;;;;;;;;;;;;;10.93;100.00;100927.59;6245565;28;19921;-76
2021/10/02 06:20:31;;;;;;;;;;;;;;;10.93;100.00;100923.22;6244211;28;19928;-74
2021/10/02 06:23:31;;;;;;;;;;;;;;;11.05;100.00;100924.41;6245498;28;20039;-76
2021/10/02 06:26:35;;;;;;;;;;;;;;;11.03;100.00;100923.63;6245323;28;20340;-76
2021/10/02 06:29:36;;;;;;;;;;;;;;;11.06;100.00;100923.50;6245561;28;19967;-74
2021/10/02 06:32:37;;;;;;;;;;;;;;;11.13;100.00;100932.69;6245357;28;19921;-76
2021/10/02 06:35:37;;;;;;;;;;;;;;;10.94;100.00;100932.75;6244257;28;19966;-74
2021/10/02 06:38:38;;;;;;;;;;;;;;;10.90;100.00;100939.06;6245003;28;19921;-74
2021/10/02 06:41:39;;;;;;;;;;;;;;;10.85;100.00;100939.28;6277016;28;19921;-74
2021/10/02 06:44:40;;;;;;;;;;;;;;;10.82;100.00;100935.97;6244002;28;19943;-73
2021/10/02 06:47:41;;;;;;;;;;;;;;;10.93;100.00;100940.66;6245167;28;19964;-73
2021/10/02 06:50:42;;;;;;;;;;;;;;;11.00;100.00;100940.28;6244991;28;19947;-73
2021/10/02 06:53:42;;;;;;;;;;;;;;;11.22;100.00;100939.22;6244985;28;20016;-77
2021/10/02 06:56:43;;;;;;;;;;;;;;;11.31;100.00;100936.19;6243706;28;19925;-77
2021/10/02 07:01:38;;;;;;;;;;;;;;;11.39;100.00;100938.41;6372559;27;2075146;-77
2021/10/02 07:04:39;;;;;;;;;;;;;;;11.49;100.00;100940.47;6445991;27;19929;-77
2021/10/02 07:07:40;;;;;;;;;;;;;;;11.54;100.00;100937.63;6427152;27;19937;-74
2021/10/02 07:10:41;;;;;;;;;;;;;;;11.73;100.00;100940.13;6427249;27;19923;-77
2021/10/02 07:13:42;;;;;;;;;;;;;;;11.88;100.00;100947.22;6445759;27;19922;-77
2021/10/02 07:16:42;;;;;;;;;;;;;;;12.03;100.00;100945.56;6426939;27;19929;-77
2021/10/02 07:19:43;;;;;;;;;;;;;;;12.14;100.00;100946.78;6445450;27;19923;-77
2021/10/02 07:22:44;;;;;;;;;;;;;;;12.20;100.00;100949.06;6426903;27;20040;-74
2021/10/02 07:25:45;;;;;;;;;;;;;;;12.22;100.00;100947.22;6445596;27;19930;-77
2021/10/02 07:28:45;;;;;;;;;;;;;;;12.38;100.00;100942.84;6445461;27;20063;-77
2021/10/02 07:31:48;;;;;;;;;;;;;;;12.36;100.00;100952.53;6445363;27;19926;-74
2021/10/02 07:34:49;;;;;;;;;;;;;;;12.41;100.00;100947.88;6409501;27;19922;-74
2021/10/02 07:37:50;;;;;;;;;;;;;;;12.55;100.00;100956.78;6428693;27;20385;-78
2021/10/02 07:40:51;;;;;;;;;;;;;;;12.61;100.00;100951.19;6418979;27;19942;-74
2021/10/02 07:43:54;;;;;;;;;;;;;;;12.65;100.00;100958.78;6430606;27;20274;-78
2021/10/02 07:46:56;;;;;;;;;;;;;;;12.73;100.00;100961.00;6436548;27;19978;-78
2021/10/02 07:49:56;;;;;;;;;;;;;;;12.82;100.00;100957.84;6400379;27;19962;-78
2021/10/02 07:52:57;;;;;;;;;;;;;;;12.92;100.00;100968.66;6419004;27;19937;-78
2021/10/02 07:56:00;;;;;;;;;;;;;;;12.96;100.00;100964.94;6399940;27;19923;-77
2021/10/02 07:59:05;;;;;;;;;;;;;;;13.05;100.00;100966.19;6399917;27;19923;-77
2021/10/02 08:02:07;;;;;;;;;;;;;;;13.06;100.00;100963.47;6438190;27;19927;-78
2021/10/02 08:05:08;;;;;;;;;;;;;;;12.88;100.00;100964.53;6425972;27;19923;-78
2021/10/02 08:08:09;;;;;;;;;;;;;;;12.79;100.00;100963.28;6408301;27;20436;-78
2021/10/02 08:11:09;;;;;;;;;;;;;;;12.93;100.00;100964.25;6437556;27;19923;-78
2021/10/02 08:14:10;;;;;;;;;;;;;;;13.17;100.00;100962.88;6426860;27;19923;-78
2021/10/02 08:17:11;;;;;;;;;;;;;;;13.39;100.00;100959.06;6426665;27;19926;-78
2021/10/02 08:20:14;;;;;;;;;;;;;;;13.71;100.00;100957.13;6420344;27;20021;-77
2021/10/02 08:23:15;;;;;;;;;;;;;;;14.02;100.00;100953.53;6411191;27;19946;-75
2021/10/02 08:26:17;;;;;;;;;;;;;;;14.31;100.00;100948.25;6400608;27;20381;-75
2021/10/02 08:29:18;;;;;;;;;;;;;;;14.49;100.00;100948.84;6401858;27;19922;-75
2021/10/02 08:32:19;;;;;;;;;;;;;;;14.53;100.00;100937.22;6426537;27;20370;-75
2021/10/02 08:35:19;;;;;;;;;;;;;;;14.51;100.00;100936.47;6399161;27;20361;-75
2021/10/02 08:38:20;;;;;;;;;;;;;;;14.49;100.00;100940.97;6389035;27;19923;-75
2021/10/02 08:41:21;;;;;;;;;;;;;;;14.55;100.00;100943.22;6414312;27;19923;-74
2021/10/02 08:44:22;;;;;;;;;;;;;;;14.82;100.00;100947.69;6417625;27;20003;-74
2021/10/02 08:47:23;;;;;;;;;;;;;;;15.08;100.00;100933.69;6426152;27;19922;-77
2021/10/02 08:50:25;;;;;;;;;;;;;;;15.37;100.00;100936.16;6390263;27;19987;-77
2021/10/02 08:53:29;;;;;;;;;;;;;;;15.52;100.00;100935.16;6426005;27;19934;-77
2021/10/02 08:56:32;;;;;;;;;;;;;;;15.38;100.00;100926.47;6396266;27;19923;-77
2021/10/02 08:59:34;;;;;;;;;;;;;;;15.69;100.00;100920.84;6415474;27;19923;-77
2021/10/02 09:02:35;;;;;;;;;;;;;;;15.75;100.00;100922.25;6425801;27;19923;-77
2021/10/02 09:05:36;;;;;;;;;;;;;;;15.75;100.00;100922.25;6425547;27;20296;-74
2021/10/02 09:08:36;;;;;;;;;;;;;;;15.73;100.00;100918.00;6425453;27;19999;-74
2021/10/02 09:11:37;;;;;;;;;;;;;;;15.96;100.00;100916.41;6406740;27;19995;-74
2021/10/02 09:14:38;;;;;;;;;;;;;;;16.07;100.00;100909.44;6406831;27;20013;-78
2021/10/02 09:17:39;;;;;;;;;;;;;;;16.19;100.00;100915.66;6425271;27;20029;-77
2021/10/02 09:20:40;;;;;;;;;;;;;;;16.64;97.16;100923.00;6424963;27;19922;-77
2021/10/02 09:23:42;;;;;;;;;;;;;;;16.82;92.85;100913.78;6416656;27;19976;-77
2021/10/02 09:26:44;;;;;;;;;;;;;;;16.99;90.29;100909.88;6399213;27;19922;-77
2021/10/02 09:29:50;;;;;;;;;;;;;;;17.16;90.10;100905.97;6401363;27;19930;-77
2021/10/02 09:33:00;;;;;;;;;;;;;;;17.17;90.08;100894.47;6411603;27;19923;-74
2021/10/02 09:36:01;;;;;;;;;;;;;;;17.45;86.64;100887.94;6410776;27;19946;-77
2021/10/02 09:39:01;;;;;;;;;;;;;;;17.30;76.63;100889.97;6399976;27;19929;-75
2021/10/02 09:42:02;;;;;;;;;;;;;;;17.05;71.54;100885.69;6398579;27;19923;-75
2021/10/02 09:45:05;;;;;;;;;;;;;;;16.85;69.41;100878.44;6380022;27;19923;-74
2021/10/02 09:48:07;;;;;;;;;;;;;;;16.50;77.43;100879.22;6398377;27;20029;-75
2021/10/02 09:51:09;;;;;;;;;;;;;;;16.15;75.07;100872.06;6398272;27;19923;-75
2021/10/02 09:54:30;;;;;;;;;;;;;;;16.45;74.75;100876.06;6398828;27;19923;-75
2021/10/02 09:57:31;;;;;;;;;;;;;;;16.92;74.89;100869.97;6410040;27;19967;-74
2021/10/02 10:00:42;;;;;;;;;;;;;;;17.17;75.50;100854.06;6405369;27;19922;-72
2021/10/02 10:03:45;;;;;;;;;;;;;;;17.77;71.28;100855.59;6393128;27;19923;-72
2021/10/02 10:06:45;;;;;;;;;;;;;;;18.25;70.80;100860.59;6409821;27;20293;-72
2021/10/02 10:10:00;;;;;;;;;;;;;;;18.19;70.81;100857.59;6393232;27;19923;-73
2021/10/02 10:13:04;;;;;;;;;;;;;;;18.40;71.30;100857.66;6419112;27;19927;-72
2021/10/02 10:16:06;;;;;;;;;;;;;;;18.02;70.02;100856.31;6401017;27;19975;-72
2021/10/02 10:19:16;;;;;;;;;;;;;;;17.55;72.64;100855.59;6397603;27;20301;-72
2021/10/02 10:22:21;;;;;;;;;;;;;;;17.08;79.03;100859.09;6397633;27;19992;-72
2021/10/02 10:25:21;;;;;;;;;;;;;;;17.06;79.64;100860.16;6397640;27;19929;-75
2021/10/02 10:28:24;;;;;;;;;;;;;;;17.11;78.87;100850.97;6397967;27;19927;-75
2021/10/02 10:31:28;;;;;;;;;;;;;;;17.42;72.91;100850.41;6379195;27;19930;-75
2021/10/02 10:34:29;;;;;;;;;;;;;;;17.32;72.10;100852.94;6397727;27;19923;-72
2021/10/02 10:37:30;;;;;;;;;;;;;;;17.29;70.76;100847.88;6379008;27;19987;-72
2021/10/02 10:40:31;;;;;;;;;;;;;;;17.27;74.76;100844.50;6378720;27;20373;-75
2021/10/02 10:43:33;;;;;;;;;;;;;;;17.03;75.58;100853.34;6378719;27;19967;-75
2021/10/02 10:46:34;;;;;;;;;;;;;;;17.01;76.72;100849.97;6378890;27;19923;-75
2021/10/02 10:49:34;;;;;;;;;;;;;;;17.06;77.14;100849.63;6378719;27;19931;-75
2021/10/02 10:52:39;;;;;;;;;;;;;;;17.18;77.51;100842.59;6367067;27;19931;-75
2021/10/02 10:55:48;;;;;;;;;;;;;;;17.16;79.24;100845.34;6424035;27;19945;-74
2021/10/02 10:58:58;;;;;;;;;;;;;;;17.19;75.59;100831.91;6423339;27;19929;-72
2021/10/02 11:01:59;;;;;;;;;;;;;;;16.93;71.88;100833.91;6370321;28;19924;-75
2021/10/02 11:05:00;;;;;;;;;;;;;;;17.00;75.85;100829.84;6371464;27;19923;-72
2021/10/02 11:08:01;;;;;;;;;;;;;;;17.11;74.48;100824.59;6353941;27;20340;-72
2021/10/02 11:11:02;;;;;;;;;;;;;;;17.19;72.14;100817.88;6345970;28;19931;-72
2021/10/02 11:14:04;;;;;;;;;;;;;;;17.27;72.71;100821.59;6345781;28;19924;-72
2021/10/02 11:17:04;;;;;;;;;;;;;;;17.36;72.31;100816.56;6345838;28;19952;-74
2021/10/02 11:20:17;;;;;;;;;;;;;;;17.13;69.62;100808.63;6345670;28;20014;-75
2021/10/02 11:23:37;;;;;;;;;;;;;;;17.47;70.08;100813.97;6344407;28;19930;-75
2021/10/02 11:26:40;;;;;;;;;;;;;;;18.03;64.97;100806.00;6345107;28;19951;-74
2021/10/02 11:29:44;;;;;;;;;;;;;;;18.42;63.93;100803.72;6345822;28;20400;-72
2021/10/02 11:32:45;;;;;;;;;;;;;;;18.79;70.84;100806.00;6346120;28;19923;-73
2021/10/02 11:35:45;;;;;;;;;;;;;;;18.77;60.22;100799.97;6346424;28;20347;-75
2021/10/02 11:38:46;;;;;;;;;;;;;;;18.98;62.28;100799.16;6346337;28;19930;-74
2021/10/02 11:41:49;;;;;;;;;;;;;;;18.82;63.54;100787.25;6346428;28;19928;-72
2021/10/02 11:44:50;;;;;;;;;;;;;;;18.34;68.10;100787.66;6346176;28;19938;-72
2021/10/02 11:48:09;;;;;;;;;;;;;;;17.94;69.87;100793.56;6348082;28;19928;-72
2021/10/02 11:51:14;;;;;;;;;;;;;;;17.61;64.56;100782.06;6350277;28;19930;-72
2021/10/02 11:54:16;;;;;;;;;;;;;;;17.43;64.14;100781.69;6373977;27;20298;-73
2021/10/02 11:57:17;;;;;;;;;;;;;;;17.59;67.88;100780.50;6375693;27;20381;-75
2021/10/02 12:00:18;;;;;;;;;;;;;;;17.39;65.62;100779.44;6386134;27;19979;-71
2021/10/02 12:03:24;;;;;;;;;;;;;;;17.57;68.47;100777.97;6401310;27;19923;-77
2021/10/02 12:06:29;;;;;;;;;;;;;;;18.08;62.34;100774.81;6401127;27;19926;-74
2021/10/02 12:09:30;;;;;;;;;;;;;;;18.33;62.10;100771.00;6400023;27;19929;-72
2021/10/02 12:12:30;;;;;;;;;;;;;;;18.32;59.80;100769.31;6400848;27;19923;-72
2021/10/02 12:15:32;;;;;;;;;;;;;;;18.50;62.76;100766.94;6400937;27;19923;-72
2021/10/02 12:18:45;;;;;;;;;;;;;;;18.67;63.69;100762.88;6400728;27;20404;-75
2021/10/02 12:21:47;;;;;;;;;;;;;;;18.93;59.58;100766.00;6400948;27;20408;-76
2021/10/02 12:24:48;;;;;;;;;;;;;;;19.20;60.48;100761.97;6400723;27;19923;-70
2021/10/02 12:27:48;;;;;;;;;;;;;;;19.39;62.24;100765.69;6399413;27;20285;-75
2021/10/02 12:30:52;;;;;;;;;;;;;;;19.20;59.57;100771.72;6400606;27;19931;-76
2021/10/02 12:34:08;;;;;;;;;;;;;;;19.03;58.18;100763.44;6400442;27;19934;-75
2021/10/02 12:37:12;;;;;;;;;;;;;;;19.11;59.45;100757.50;6400415;27;19968;-71
2021/10/02 12:40:13;;;;;;;;;;;;;;;18.77;56.80;100752.38;6400250;27;20628;-71
2021/10/02 12:43:14;;;;;;;;;;;;;;;18.78;62.83;100747.94;6399028;27;20361;-76
2021/10/02 12:46:17;;;;;;;;;;;;;;;18.35;57.22;100740.97;6400465;27;19984;-76
2021/10/02 12:49:19;;;;;;;;;;;;;;;18.28;59.82;100733.56;6400096;27;19926;-70
2021/10/02 12:52:20;;;;;;;;;;;;;;;18.29;59.45;100734.41;6386965;27;19923;-70
2021/10/02 12:55:21;;;;;;;;;;;;;;;18.29;58.87;100731.75;6374179;27;19973;-76
2021/10/02 12:58:23;;;;;;;;;;;;;;;18.21;66.53;100744.75;6373950;27;19924;-76
2021/10/02 13:01:24;;;;;;;;;;;;;;;18.46;67.23;100743.56;6395400;27;19930;-76
2021/10/02 13:04:25;;;;;;;;;;;;;;;18.61;62.28;100744.06;6399654;27;19942;-76
2021/10/02 13:07:31;;;;;;;;;;;;;;;18.63;65.70;100731.56;6381414;27;19934;-70
2021/10/02 13:10:33;;;;;;;;;;;;;;;18.76;66.21;100728.72;6399587;27;20317;-70
2021/10/02 13:13:37;;;;;;;;;;;;;;;18.86;62.45;100730.50;6399541;27;20361;-75
2021/10/02 13:16:37;;;;;;;;;;;;;;;18.68;64.87;100724.94;6381125;27;19923;-76
2021/10/02 13:19:38;;;;;;;;;;;;;;;18.45;64.31;100718.94;6380726;27;19962;-70
2021/10/02 13:22:45;;;;;;;;;;;;;;;18.37;67.36;100715.28;6399256;27;20293;-71
2021/10/02 13:25:53;;;;;;;;;;;;;;;18.42;69.86;100718.34;6399100;27;20362;-71
2021/10/02 13:28:55;;;;;;;;;;;;;;;18.35;66.26;100718.03;6399161;27;20028;-71
2021/10/02 13:32:12;;;;;;;;;;;;;;;18.41;66.69;100719.31;6398899;27;20400;-70
2021/10/02 13:35:12;;;;;;;;;;;;;;;18.35;68.23;100718.03;6399173;27;19923;-75
2021/10/02 13:38:14;;;;;;;;;;;;;;;18.53;66.56;100713.84;6398820;27;19930;-70
2021/10/02 13:41:18;;;;;;;;;;;;;;;18.49;63.15;100712.44;6380314;27;19962;-70
2021/10/02 13:44:26;;;;;;;;;;;;;;;18.47;65.09;100705.56;6410557;27;19922;-70
2021/10/02 13:47:27;;;;;;;;;;;;;;;18.33;67.11;100712.88;6408159;27;20320;-70
2021/10/02 13:50:28;;;;;;;;;;;;;;;18.24;63.86;100716.28;6389600;27;19929;-71
2021/10/02 13:53:28;;;;;;;;;;;;;;;18.27;64.25;100708.09;6403932;27;19930;-70
2021/10/02 13:56:36;;;;;;;;;;;;;;;18.27;66.18;100709.91;6375080;27;19923;-75
2021/10/02 13:59:39;;;;;;;;;;;;;;;17.99;63.52;100706.88;6398197;27;19933;-75
2021/10/02 14:02:39;;;;;;;;;;;;;;;17.91;65.95;100704.91;6410113;27;20009;-70
2021/10/02 14:05:41;;;;;;;;;;;;;;;17.91;68.44;100698.75;6362604;27;19930;-73
2021/10/02 14:08:41;;;;;;;;;;;;;;;17.80;62.87;100702.25;6399569;27;20056;-70
2021/10/02 14:11:42;;;;;;;;;;;;;;;17.75;62.74;100700.94;6380418;27;19923;-75
2021/10/02 14:14:42;;;;;;;;;;;;;;;17.65;64.75;100693.78;6405236;27;19930;-70
2021/10/02 14:17:44;;;;;;;;;;;;;;;17.64;66.80;100699.16;6405159;27;20372;-70
2021/10/02 14:20:44;;;;;;;;;;;;;;;17.52;62.67;100698.34;6411034;27;19929;-70
2021/10/02 14:23:45;;;;;;;;;;;;;;;17.39;64.51;100702.94;6397392;27;20293;-70
2021/10/02 14:26:46;;;;;;;;;;;;;;;17.33;67.67;100696.34;6396824;27;19930;-71
2021/10/02 14:29:47;;;;;;;;;;;;;;;17.38;71.25;100693.31;6379073;27;19976;-70
2021/10/02 14:32:48;;;;;;;;;;;;;;;17.38;69.23;100693.31;6378798;27;19927;-75
2021/10/02 14:35:49;;;;;;;;;;;;;;;17.35;73.22;100697.06;6378889;27;19981;-75
2021/10/02 14:38:50;;;;;;;;;;;;;;;17.26;69.95;100695.16;6397228;27;20007;-75
2021/10/02 14:41:51;;;;;;;;;;;;;;;17.22;71.30;100693.72;6396954;27;19923;-70
2021/10/02 14:44:55;;;;;;;;;;;;;;;17.16;70.19;100689.75;6379011;27;19957;-73
2021/10/02 14:47:55;;;;;;;;;;;;;;;17.15;76.27;100690.69;6378678;27;19938;-78
2021/10/02 14:50:57;;;;;;;;;;;;;;;17.14;72.60;100689.03;6397120;27;19923;-78
2021/10/02 14:54:00;;;;;;;;;;;;;;;17.16;73.75;100686.28;6378765;27;19923;-70
2021/10/02 14:57:02;;;;;;;;;;;;;;;17.04;75.27;100683.66;6378460;27;19923;-70
2021/10/02 15:00:06;;;;;;;;;;;;;;;16.92;76.04;100685.47;6378197;27;19923;-70
2021/10/02 15:03:07;;;;;;;;;;;;;;;16.84;77.07;100690.47;6396959;27;19949;-70
2021/10/02 15:06:08;;;;;;;;;;;;;;;16.73;74.55;100686.00;6396852;27;20377;-76
2021/10/02 15:09:10;;;;;;;;;;;;;;;16.68;76.70;100680.25;6396937;27;19934;-75
2021/10/02 15:12:11;;;;;;;;;;;;;;;16.58;77.32;100689.81;6396694;27;20394;-76
2021/10/02 15:15:12;;;;;;;;;;;;;;;16.56;76.53;100685.63;6396831;27;19931;-76
2021/10/02 15:18:12;;;;;;;;;;;;;;;16.48;78.50;100679.13;6396699;27;20281;-76
2021/10/02 15:21:14;;;;;;;;;;;;;;;16.44;80.25;100687.38;6397750;27;19923;-76
2021/10/02 15:24:17;;;;;;;;;;;;;;;16.37;81.79;100689.66;6401858;27;20305;-70
2021/10/02 15:27:26;;;;;;;;;;;;;;;16.32;82.79;100683.88;6401801;27;20395;-75
2021/10/02 15:30:26;;;;;;;;;;;;;;;16.29;83.07;100690.22;6401765;27;20418;-75
2021/10/02 15:33:27;;;;;;;;;;;;;;;16.28;82.49;100688.53;6401856;27;19927;-75
2021/10/02 15:36:28;;;;;;;;;;;;;;;16.26;82.60;100697.50;6401861;27;20384;-78
2021/10/02 15:39:30;;;;;;;;;;;;;;;16.18;83.84;100691.97;6401656;27;19969;-76
2021/10/02 15:42:31;;;;;;;;;;;;;;;16.06;85.39;100696.34;6401570;27;20004;-75
2021/10/02 15:45:33;;;;;;;;;;;;;;;15.98;89.06;100693.44;6382881;27;19927;-75
2021/10/02 15:48:35;;;;;;;;;;;;;;;15.92;89.72;100697.38;6401447;27;19923;-76
2021/10/02 15:51:36;;;;;;;;;;;;;;;15.83;88.25;100690.97;6382883;27;19923;-76
2021/10/02 15:54:37;;;;;;;;;;;;;;;15.73;90.83;100703.13;6401210;27;20345;-76
2021/10/02 15:57:40;;;;;;;;;;;;;;;15.65;89.90;100687.03;6401091;27;19929;-75
2021/10/02 16:00:43;;;;;;;;;;;;;;;15.61;91.49;100696.09;6400932;27;20413;-76
2021/10/02 16:03:45;;;;;;;;;;;;;;;15.54;91.68;100698.31;6400904;27;19923;-75
2021/10/02 16:06:47;;;;;;;;;;;;;;;15.45;92.41;100697.19;6381947;27;19930;-75
2021/10/02 16:09:49;;;;;;;;;;;;;;;15.31;92.69;100698.16;6400876;27;20285;-75
2021/10/02 16:12:55;;;;;;;;;;;;;;;15.10;94.48;100689.16;6400763;27;20369;-76
2021/10/02 16:15:56;;;;;;;;;;;;;;;15.02;98.05;100699.38;6400770;27;19927;-76
2021/10/02 16:18:57;;;;;;;;;;;;;;;14.98;98.44;100703.16;6401003;27;20018;-78
2021/10/02 16:21:57;;;;;;;;;;;;;;;14.93;99.17;100702.59;6400795;27;19957;-75
2021/10/02 16:24:58;;;;;;;;;;;;;;;14.85;100.00;100703.16;6382097;27;19930;-78